createdAt,value
2023-05-20T00:02:39.911Z,14.25
2023-05-20T00:07:44.167Z,14.27
2023-05-20T00:12:48.012Z,14.26
2023-05-20T00:17:50.841Z,14.30
2023-05-20T00:22:54.946Z,14.33
2023-05-20T00:27:57.815Z,14.63
2023-05-20T00:33:00.746Z,14.37
2023-05-20T00:38:05.814Z,14.39
2023-05-20T00:43:08.590Z,14.12
2023-05-20T00:48:11.637Z,14.06
2023-05-20T00:53:18.192Z,14.27
2023-05-20T00:58:21.053Z,14.11
2023-05-20T01:03:24.321Z,14.16
2023-05-20T01:08:29.109Z,14.03
2023-05-20T01:13:46.970Z,14.00
2023-05-20T01:18:50.712Z,13.96
2023-05-20T01:23:54.936Z,13.95
2023-05-20T01:28:57.927Z,13.70
2023-05-20T01:34:01.663Z,13.68
2023-05-20T01:39:07.717Z,13.64
2023-05-20T01:44:10.938Z,13.45
2023-05-20T01:49:13.706Z,13.53
2023-05-20T01:54:17.816Z,13.64
2023-05-20T01:59:20.604Z,13.46
2023-05-20T02:04:23.915Z,13.35
2023-05-20T02:09:28.050Z,13.19
2023-05-20T02:14:30.929Z,13.37
2023-05-20T02:19:33.721Z,13.50
2023-05-20T02:24:37.873Z,13.38
2023-05-20T02:29:40.763Z,13.53
2023-05-20T02:34:43.534Z,13.58
2023-05-20T02:39:47.725Z,13.36
2023-05-20T02:44:51.133Z,13.05
2023-05-20T02:49:54.212Z,13.14
2023-05-20T02:54:58.867Z,13.06
2023-05-20T03:00:01.798Z,13.31
2023-05-20T03:05:05.401Z,13.25
2023-05-20T03:10:10.785Z,12.98
2023-05-20T03:15:17.024Z,13.06
2023-05-20T03:20:21.217Z,13.04
2023-05-20T03:25:26.176Z,13.22
2023-05-20T03:30:29.641Z,12.97
2023-05-20T03:35:33.553Z,13.09
2023-05-20T03:40:38.051Z,13.00
2023-05-20T03:45:41.796Z,12.93
2023-05-20T03:50:44.673Z,13.14
2023-05-20T03:55:48.883Z,13.27
2023-05-20T04:00:52.278Z,13.09
2023-05-20T04:05:55.614Z,13.34
2023-05-20T04:11:00.314Z,13.59
2023-05-20T04:16:05.370Z,13.40
2023-05-20T04:21:08.897Z,13.94
2023-05-20T04:26:13.151Z,13.63
2023-05-20T04:31:16.237Z,13.68
2023-05-20T04:36:19.550Z,13.58
2023-05-20T04:41:27.403Z,13.85
2023-05-20T04:46:31.686Z,14.01
2023-05-20T04:51:35.459Z,14.01
2023-05-20T04:56:40.386Z,14.15
2023-05-20T05:01:43.706Z,14.04
2023-05-20T05:06:48.910Z,14.17
2023-05-20T05:11:53.182Z,14.35
2023-05-20T05:16:56.157Z,14.17
2023-05-20T05:21:59.143Z,14.33
2023-05-20T05:27:03.521Z,14.52
2023-05-20T05:32:07.055Z,14.83
2023-05-20T05:37:10.385Z,15.03
2023-05-20T05:42:15.188Z,14.96
2023-05-20T05:47:18.158Z,15.26
2023-05-20T05:52:24.057Z,15.81
2023-05-20T05:57:28.478Z,15.66
2023-05-20T06:02:36.039Z,16.57
2023-05-20T06:07:39.161Z,17.11
2023-05-20T06:12:43.608Z,17.19
2023-05-20T06:17:46.716Z,17.07
2023-05-20T06:22:51.338Z,17.03
2023-05-20T06:27:56.975Z,16.58
2023-05-20T06:33:00.842Z,17.33
2023-05-20T06:38:04.058Z,19.57
2023-05-20T06:43:08.475Z,20.67
2023-05-20T06:48:40.627Z,20.29
2023-05-20T06:53:44.138Z,19.51
2023-05-20T06:58:48.575Z,19.96
2023-05-20T07:03:52.176Z,21.46
2023-05-20T07:08:55.337Z,22.76
2023-05-20T07:13:59.787Z,22.32
2023-05-20T07:19:06.623Z,22.80
2023-05-20T07:24:10.427Z,23.44
2023-05-20T07:29:15.151Z,23.71
2023-05-20T07:34:18.136Z,24.89
2023-05-20T07:39:21.816Z,25.31
2023-05-20T07:44:26.655Z,24.29
2023-05-20T07:49:30.322Z,24.26
2023-05-20T07:54:33.359Z,23.82
2023-05-20T07:59:37.651Z,22.95
2023-05-20T08:04:41.207Z,22.64
2023-05-20T08:09:44.189Z,22.80
2023-05-20T08:14:48.619Z,23.49
2023-05-20T08:19:51.554Z,22.16
2023-05-20T08:24:54.610Z,20.48
2023-05-20T08:30:00.590Z,20.73
2023-05-20T08:35:04.439Z,20.75
2023-05-20T08:40:09.823Z,19.92
2023-05-20T08:45:18.510Z,19.97
2023-05-20T08:50:22.229Z,19.95
2023-05-20T08:55:27.108Z,20.41
2023-05-20T09:00:32.138Z,19.38
2023-05-20T09:05:36.014Z,20.00
2023-05-20T09:10:40.037Z,19.10
2023-05-20T09:15:44.198Z,19.16
2023-05-20T09:20:48.707Z,19.59
2023-05-20T09:25:52.341Z,19.12
2023-05-20T09:30:59.756Z,18.71
2023-05-20T09:36:05.522Z,19.33
2023-05-20T09:41:09.592Z,18.94
2023-05-20T09:46:14.517Z,18.95
2023-05-20T09:51:19.380Z,19.10
2023-05-20T09:56:23.820Z,19.24
2023-05-20T10:01:28.111Z,19.09
2023-05-20T10:06:46.649Z,19.07
2023-05-20T10:11:58.628Z,19.24
2023-05-20T10:17:12.112Z,19.72
2023-05-20T10:22:15.081Z,18.68
2023-05-20T10:27:19.252Z,18.71
2023-05-20T10:32:27.838Z,18.82
2023-05-20T10:37:31.946Z,19.39
2023-05-20T10:42:34.991Z,18.67
2023-05-20T10:47:54.669Z,18.87
2023-05-20T10:53:05.215Z,19.26
2023-05-20T10:58:08.783Z,18.85
2023-05-20T11:03:14.932Z,19.07
2023-05-20T11:08:28.694Z,19.67
2023-05-20T11:13:32.531Z,20.43
2023-05-20T11:18:36.650Z,20.33
2023-05-20T11:23:40.691Z,19.61
2023-05-20T11:28:43.863Z,19.14
2023-05-20T11:33:48.553Z,19.69
2023-05-20T11:38:52.865Z,18.98
2023-05-20T11:43:59.423Z,19.68
2023-05-20T11:49:03.897Z,19.31
2023-05-20T11:54:08.607Z,19.12
2023-05-20T11:59:11.515Z,18.97
2023-05-20T12:04:16.339Z,19.23
2023-05-20T12:09:20.016Z,18.90
2023-05-20T12:14:22.778Z,18.67
2023-05-20T12:19:26.965Z,19.79
2023-05-20T12:24:29.839Z,19.70
2023-05-20T12:29:32.629Z,20.39
2023-05-20T12:34:37.026Z,19.96
2023-05-20T12:39:39.834Z,19.48
2023-05-20T12:44:42.621Z,20.05
2023-05-20T12:49:46.730Z,19.91
2023-05-20T12:54:49.652Z,20.57
2023-05-20T12:59:52.606Z,20.66
2023-05-20T13:04:56.774Z,20.31
2023-05-20T13:09:59.697Z,20.30
2023-05-20T13:15:03.911Z,19.54
2023-05-20T13:20:10.937Z,19.98
2023-05-20T13:25:13.786Z,20.15
2023-05-20T13:30:16.620Z,19.98
2023-05-20T13:35:20.922Z,20.04
2023-05-20T13:40:23.817Z,20.45
2023-05-20T13:45:26.875Z,20.92
2023-05-20T13:50:30.955Z,20.27
2023-05-20T13:55:33.844Z,19.83
2023-05-20T14:00:37.252Z,19.99
2023-05-20T14:05:41.550Z,20.21
2023-05-20T14:10:44.296Z,19.85
2023-05-20T14:15:47.077Z,20.60
2023-05-20T14:20:51.361Z,19.67
2023-05-20T14:25:54.278Z,19.53
2023-05-20T14:30:57.125Z,19.32
2023-05-20T14:36:01.308Z,19.83
2023-05-20T14:41:04.339Z,19.50
2023-05-20T14:46:07.658Z,19.35
2023-05-20T14:51:11.825Z,19.94
2023-05-20T14:56:14.927Z,20.29
2023-05-20T15:01:18.041Z,19.71
2023-05-20T15:06:22.242Z,19.78
2023-05-20T15:11:25.390Z,19.67
2023-05-20T15:16:28.222Z,19.41
2023-05-20T15:21:32.448Z,19.79
2023-05-20T15:26:35.433Z,19.68
2023-05-20T15:31:38.274Z,19.84
2023-05-20T15:36:42.620Z,19.27
2023-05-20T15:41:47.976Z,20.15
2023-05-20T15:46:50.908Z,20.38
2023-05-20T15:52:02.885Z,20.21
2023-05-20T15:57:06.828Z,20.26
2023-05-20T16:02:10.742Z,19.10
2023-05-20T16:07:15.133Z,19.67
2023-05-20T16:12:18.385Z,19.51
2023-05-20T16:17:21.768Z,19.43
2023-05-20T16:22:26.147Z,19.22
2023-05-20T16:27:29.127Z,19.52
2023-05-20T16:32:32.120Z,19.13
2023-05-20T16:37:36.520Z,18.69
2023-05-20T16:42:39.928Z,18.32
2023-05-20T16:47:42.840Z,18.72
2023-05-20T16:52:46.985Z,18.83
2023-05-20T16:57:50.539Z,18.75
2023-05-20T17:02:53.350Z,19.37
2023-05-20T17:08:00.062Z,18.94
2023-05-20T17:13:03.988Z,19.24
2023-05-20T17:18:06.962Z,18.82
2023-05-20T17:23:11.471Z,18.80
2023-05-20T17:28:14.391Z,18.46
2023-05-20T17:33:17.616Z,18.66
2023-05-20T17:38:26.120Z,18.24
2023-05-20T17:43:29.082Z,18.71
2023-05-20T17:48:32.941Z,18.54
2023-05-20T17:53:37.229Z,18.96
2023-05-20T17:58:40.521Z,18.52
2023-05-20T18:03:43.539Z,18.26
2023-05-20T18:08:47.824Z,18.49
2023-05-20T18:13:50.990Z,18.09
2023-05-20T18:18:53.991Z,18.57
2023-05-20T18:23:58.284Z,18.68
2023-05-20T18:29:01.457Z,18.08
2023-05-20T18:34:04.458Z,18.94
2023-05-20T18:39:08.844Z,18.73
2023-05-20T18:44:11.691Z,18.34
2023-05-20T18:49:14.687Z,18.57
2023-05-20T18:54:18.993Z,18.76
2023-05-20T18:59:23.904Z,18.68
2023-05-20T19:04:27.968Z,18.68
2023-05-20T19:09:32.990Z,18.83
2023-05-20T19:14:36.202Z,18.49
2023-05-20T19:19:39.176Z,18.70
2023-05-20T19:24:43.513Z,18.46
2023-05-20T19:29:46.457Z,18.08
2023-05-20T19:34:49.276Z,18.04
2023-05-20T19:39:53.473Z,17.79
2023-05-20T19:44:57.318Z,17.46
2023-05-20T19:50:00.203Z,17.30
2023-05-20T19:55:04.850Z,17.08
2023-05-20T20:00:11.282Z,17.31
2023-05-20T20:05:17.264Z,17.18
2023-05-20T20:10:21.523Z,17.16
2023-05-20T20:15:25.083Z,17.04
2023-05-20T20:20:27.971Z,16.77
2023-05-20T20:25:34.101Z,16.82
2023-05-20T20:30:37.517Z,16.51
2023-05-20T20:35:40.377Z,16.73
2023-05-20T20:40:44.934Z,16.47
2023-05-20T20:45:47.882Z,16.58
2023-05-20T20:50:50.939Z,16.17
2023-05-20T20:55:56.976Z,16.36
2023-05-20T21:00:59.829Z,16.20
2023-05-20T21:06:02.770Z,16.40
2023-05-20T21:11:07.132Z,16.32
2023-05-20T21:16:10.239Z,16.13
2023-05-20T21:21:14.845Z,16.28
2023-05-20T21:26:21.188Z,16.22
2023-05-20T21:31:23.986Z,16.25
2023-05-20T21:36:26.921Z,16.43
2023-05-20T21:41:31.055Z,16.38
2023-05-20T21:46:33.932Z,16.13
2023-05-20T21:51:36.948Z,16.18
2023-05-20T21:56:41.096Z,16.27
2023-05-20T22:01:43.959Z,16.18
2023-05-20T22:06:46.811Z,15.98
2023-05-20T22:11:51.096Z,15.98
2023-05-20T22:16:53.939Z,15.85
2023-05-20T22:21:57.134Z,16.10
2023-05-20T22:27:01.633Z,15.92
2023-05-20T22:32:04.957Z,16.11
2023-05-20T22:37:09.229Z,16.24
2023-05-20T22:42:13.405Z,16.11
2023-05-20T22:47:16.282Z,16.27
2023-05-20T22:52:21.247Z,15.99
2023-05-20T22:57:25.891Z,15.80
2023-05-20T23:02:30.411Z,15.90
2023-05-20T23:07:33.307Z,15.93
2023-05-20T23:12:37.623Z,15.71
2023-05-20T23:17:40.502Z,15.68
2023-05-20T23:22:43.384Z,15.54
2023-05-20T23:27:47.538Z,15.57
2023-05-20T23:32:51.266Z,15.69
2023-05-20T23:37:54.160Z,15.37
2023-05-20T23:42:58.365Z,15.68
2023-05-20T23:48:03.401Z,15.67
2023-05-20T23:53:06.230Z,15.56
2023-05-20T23:58:10.679Z,15.52
